Time;durP1;ratioP1;P1;durP2;ratioP2;P2;SDS_P1;SDS_P2;PMS_P1;PMS_P2;Temp;Humidity;BMP_temperature;BMP_pressure;BME280_temperature;BME280_humidity;BME280_pressure;Samples;Min_cycle;Max_cycle;Signal;HPM_P1;HPM_P2
2024/04/19 00:00:50;;;;;;;5.17;2.00;;;;;;;;;;5352726;26;20254;-89
2024/04/19 00:03:15;;;;;;;5.10;1.73;;;;;;;;;;5322018;26;20307;-89
2024/04/19 00:05:41;;;;;;;5.93;1.90;;;;;;;;;;5331252;26;20311;-87
2024/04/19 00:08:29;;;;;;;5.73;1.83;;;;;;;;;;5352625;26;20358;-85
2024/04/19 00:10:55;;;;;;;7.17;1.60;;;;;;;;;;5320564;26;20259;-91
2024/04/19 00:13:25;;;;;;;5.80;1.77;;;;;;;;;;5350571;26;20254;-88
2024/04/19 00:15:51;;;;;;;8.63;1.80;;;;;;;;;;5338669;26;20271;-90
2024/04/19 00:18:17;;;;;;;6.07;1.60;;;;;;;;;;5345894;26;20600;-90
2024/04/19 00:20:45;;;;;;;6.87;1.70;;;;;;;;;;5314945;26;20828;-87
2024/04/19 00:23:10;;;;;;;6.40;1.67;;;;;;;;;;5348393;26;20309;-89
2024/04/19 00:25:36;;;;;;;6.10;1.87;;;;;;;;;;5322938;26;20836;-89
2024/04/19 00:28:01;;;;;;;7.13;2.17;;;;;;;;;;5345300;26;20259;-89
2024/04/19 00:30:29;;;;;;;6.77;1.87;;;;;;;;;;5314656;26;20286;-89
2024/04/19 00:32:57;;;;;;;4.00;1.60;;;;;;;;;;5340166;26;20261;-86
2024/04/19 00:35:22;;;;;;;6.03;1.87;;;;;;;;;;5356744;26;20258;-89
2024/04/19 00:37:48;;;;;;;9.57;2.07;;;;;;;;;;5322372;26;20585;-88
2024/04/19 00:40:32;;;;;;;7.60;1.80;;;;;;;;;;5346380;26;20259;-88
2024/04/19 00:43:00;;;;;;;4.80;1.83;;;;;;;;;;5311331;26;20725;-87
2024/04/19 00:45:33;;;;;;;6.90;1.70;;;;;;;;;;5319686;26;20288;-90
2024/04/19 00:48:00;;;;;;;7.27;1.90;;;;;;;;;;5363183;26;20367;-89
2024/04/19 00:50:56;;;;;;;7.27;2.00;;;;;;;;;;5354722;26;20616;-88
2024/04/19 00:53:26;;;;;;;5.30;1.50;;;;;;;;;;5313378;26;20262;-87
2024/04/19 00:55:53;;;;;;;5.70;2.03;;;;;;;;;;5323422;26;20255;-86
2024/04/19 00:58:20;;;;;;;7.03;1.77;;;;;;;;;;5354941;26;20300;-88
2024/04/19 01:00:48;;;;;;;4.17;1.80;;;;;;;;;;5335732;26;20269;-89
2024/04/19 01:03:17;;;;;;;10.00;2.10;;;;;;;;;;5347479;26;20257;-89
2024/04/19 01:05:45;;;;;;;7.53;1.80;;;;;;;;;;5311421;26;20286;-89
2024/04/19 01:08:28;;;;;;;4.87;1.90;;;;;;;;;;5319829;26;20254;-89
2024/04/19 01:10:56;;;;;;;5.53;1.80;;;;;;;;;;5350144;26;20380;-87
2024/04/19 01:13:21;;;;;;;7.03;2.03;;;;;;;;;;5323223;26;20266;-90
2024/04/19 01:15:50;;;;;;;5.07;1.70;;;;;;;;;;5374772;26;20605;-88
2024/04/19 01:18:15;;;;;;;3.67;1.87;;;;;;;;;;5344722;26;21015;-89
2024/04/19 01:20:42;;;;;;;8.27;2.03;;;;;;;;;;5353219;26;20335;-90
2024/04/19 01:23:08;;;;;;;6.00;1.57;;;;;;;;;;5361281;26;20604;-88
2024/04/19 01:25:36;;;;;;;4.10;1.67;;;;;;;;;;5314606;26;20289;-87
2024/04/19 01:28:11;;;;;;;5.67;2.00;;;;;;;;;;5336572;26;20266;-90
2024/04/19 01:30:46;;;;;;;7.23;2.17;;;;;;;;;;5321903;26;20257;-88
2024/04/19 01:33:12;;;;;;;4.47;2.00;;;;;;;;;;5349748;26;20267;-88
2024/04/19 01:35:37;;;;;;;5.50;2.00;;;;;;;;;;5351051;26;20302;-87
2024/04/19 01:38:06;;;;;;;4.90;1.70;;;;;;;;;;5320560;26;20284;-86
2024/04/19 01:40:31;;;;;;;7.77;1.97;;;;;;;;;;5362023;26;20251;-88
2024/04/19 01:42:59;;;;;;;6.13;2.10;;;;;;;;;;5345245;26;20302;-87
2024/04/19 01:45:24;;;;;;;5.27;2.10;;;;;;;;;;5365370;26;20276;-85
2024/04/19 01:47:50;;;;;;;8.47;2.33;;;;;;;;;;5343741;26;20246;-87
2024/04/19 01:50:15;;;;;;;6.37;2.37;;;;;;;;;;5362008;26;20254;-86
2024/04/19 01:52:43;;;;;;;4.70;2.17;;;;;;;;;;5365440;26;20300;-83
2024/04/19 01:55:08;;;;;;;6.60;2.83;;;;;;;;;;5370687;26;20254;-86
2024/04/19 01:57:34;;;;;;;6.50;2.50;;;;;;;;;;5342385;26;20246;-88
2024/04/19 02:00:00;;;;;;;8.83;2.97;;;;;;;;;;5401003;26;20257;-89
2024/04/19 02:02:26;;;;;;;6.33;2.50;;;;;;;;;;5366191;26;20352;-90
2024/04/19 02:04:52;;;;;;;6.47;2.67;;;;;;;;;;5356244;26;20320;-90
2024/04/19 02:07:18;;;;;;;4.57;2.47;;;;;;;;;;5334082;26;20263;-86
2024/04/19 02:09:44;;;;;;;6.03;2.67;;;;;;;;;;5310759;26;20251;-85
2024/04/19 02:12:09;;;;;;;4.70;2.67;;;;;;;;;;5341625;26;20289;-81
2024/04/19 02:14:35;;;;;;;4.67;2.57;;;;;;;;;;5331750;26;20293;-88
2024/04/19 02:17:00;;;;;;;7.80;2.57;;;;;;;;;;5370962;26;20261;-88
2024/04/19 02:19:29;;;;;;;6.73;2.70;;;;;;;;;;5367306;26;20270;-89
2024/04/19 02:21:55;;;;;;;4.57;2.70;;;;;;;;;;5320178;26;20349;-89
2024/04/19 02:24:23;;;;;;;6.80;2.80;;;;;;;;;;5325122;26;20274;-89
2024/04/19 02:26:52;;;;;;;3.90;2.40;;;;;;;;;;5346940;26;20685;-87
2024/04/19 02:32:04;;;;;;;3.97;2.73;;;;;;;;;;5369676;26;20254;-88
2024/04/19 02:34:30;;;;;;;5.03;2.57;;;;;;;;;;5317552;26;20297;-85
2024/04/19 02:37:00;;;;;;;3.90;2.40;;;;;;;;;;5326954;26;20351;-85
2024/04/19 02:39:26;;;;;;;8.60;3.00;;;;;;;;;;5328596;26;20608;-87
2024/04/19 02:41:51;;;;;;;7.53;3.27;;;;;;;;;;5326707;26;20284;-88
2024/04/19 02:44:17;;;;;;;4.90;2.87;;;;;;;;;;5360070;26;20257;-89
2024/04/19 02:46:43;;;;;;;4.70;3.17;;;;;;;;;;5325369;26;20253;-89
2024/04/19 02:49:10;;;;;;;6.07;3.00;;;;;;;;;;5322036;26;20739;-85
2024/04/19 02:51:36;;;;;;;6.30;3.33;;;;;;;;;;5340684;26;20263;-88
2024/04/19 02:54:04;;;;;;;5.67;3.20;;;;;;;;;;5352149;26;20631;-88
2024/04/19 02:56:32;;;;;;;4.27;3.70;;;;;;;;;;5320340;26;20263;-88
2024/04/19 02:58:58;;;;;;;6.20;4.17;;;;;;;;;;5310776;26;20296;-87
2024/04/19 03:01:23;;;;;;;5.13;3.83;;;;;;;;;;5349128;26;20266;-86
2024/04/19 03:03:51;;;;;;;5.73;3.90;;;;;;;;;;5321524;26;20320;-86
2024/04/19 03:06:26;;;;;;;5.70;3.73;;;;;;;;;;5346170;26;20302;-87
2024/04/19 03:08:51;;;;;;;7.10;3.80;;;;;;;;;;5331262;26;20265;-88
2024/04/19 03:11:17;;;;;;;5.83;4.17;;;;;;;;;;5346141;26;20328;-89
2024/04/19 03:13:42;;;;;;;7.07;3.90;;;;;;;;;;5365090;26;20265;-87
2024/04/19 03:16:08;;;;;;;6.17;4.63;;;;;;;;;;5319623;26;21080;-87
2024/04/19 03:18:41;;;;;;;6.77;4.33;;;;;;;;;;5354423;26;20324;-88
2024/04/19 03:21:06;;;;;;;7.27;4.50;;;;;;;;;;5350057;26;20288;-88
2024/04/19 03:23:32;;;;;;;6.27;4.10;;;;;;;;;;5296078;26;20254;-86
2024/04/19 03:26:01;;;;;;;8.20;4.57;;;;;;;;;;5351428;26;20297;-89
2024/04/19 03:28:27;;;;;;;5.33;4.80;;;;;;;;;;5293921;26;20301;-87
2024/04/19 03:30:54;;;;;;;6.27;4.70;;;;;;;;;;5322517;26;20259;-88
2024/04/19 03:33:22;;;;;;;7.13;5.10;;;;;;;;;;5350337;26;20311;-90
2024/04/19 03:35:48;;;;;;;7.23;5.30;;;;;;;;;;5355595;26;20262;-89
2024/04/19 03:38:14;;;;;;;5.90;5.27;;;;;;;;;;5298369;26;20300;-86
2024/04/19 03:40:41;;;;;;;5.77;4.77;;;;;;;;;;5347478;26;20275;-85
2024/04/19 03:43:10;;;;;;;6.70;5.27;;;;;;;;;;5350234;26;20352;-87
2024/04/19 03:45:41;;;;;;;9.30;5.80;;;;;;;;;;5325826;26;20257;-87
2024/04/19 03:48:09;;;;;;;6.67;5.90;;;;;;;;;;5328222;26;20315;-87
2024/04/19 03:50:34;;;;;;;6.20;5.60;;;;;;;;;;5356292;26;20257;-88
2024/04/19 03:53:05;;;;;;;6.00;5.33;;;;;;;;;;5323936;26;20277;-87
2024/04/19 03:55:33;;;;;;;6.00;5.40;;;;;;;;;;5322586;26;20274;-86
2024/04/19 04:01:49;;;;;;;5.50;5.03;;;;;;;;;;5374049;26;20375;-87
2024/04/19 04:04:17;;;;;;;5.40;4.90;;;;;;;;;;5350206;26;20328;-88
2024/04/19 04:06:42;;;;;;;6.50;5.90;;;;;;;;;;5323465;26;20254;-87
2024/04/19 04:09:08;;;;;;;5.97;5.47;;;;;;;;;;5349161;26;20265;-84
2024/04/19 04:11:34;;;;;;;6.33;5.83;;;;;;;;;;5315803;26;20273;-86
2024/04/19 04:13:59;;;;;;;7.10;6.00;;;;;;;;;;5349864;26;20266;-85
2024/04/19 04:16:25;;;;;;;7.07;5.03;;;;;;;;;;5347438;26;20594;-87
2024/04/19 04:18:50;;;;;;;5.97;5.47;;;;;;;;;;5352009;26;20258;-88
2024/04/19 04:21:16;;;;;;;5.93;4.97;;;;;;;;;;5373717;26;20673;-86
2024/04/19 04:23:41;;;;;;;5.13;4.63;;;;;;;;;;5317294;26;20750;-85
2024/04/19 04:26:07;;;;;;;5.50;5.00;;;;;;;;;;5338064;26;20284;-88
2024/04/19 04:28:37;;;;;;;5.23;4.70;;;;;;;;;;5350728;26;20262;-86
2024/04/19 04:31:08;;;;;;;5.73;5.17;;;;;;;;;;5355478;26;20269;-86
2024/04/19 04:33:33;;;;;;;5.93;5.43;;;;;;;;;;5355525;26;20336;-88
2024/04/19 04:36:01;;;;;;;5.07;4.67;;;;;;;;;;5351827;26;20322;-88
2024/04/19 04:38:29;;;;;;;5.37;4.97;;;;;;;;;;5295729;26;20324;-87
2024/04/19 04:40:55;;;;;;;5.50;5.00;;;;;;;;;;5324511;26;20273;-87
2024/04/19 04:43:20;;;;;;;5.43;4.93;;;;;;;;;;5354284;26;20605;-86
2024/04/19 04:45:46;;;;;;;5.67;5.17;;;;;;;;;;5345846;26;20607;-88
2024/04/19 04:48:12;;;;;;;6.30;5.70;;;;;;;;;;5348552;26;20261;-88
2024/04/19 04:50:37;;;;;;;5.57;5.07;;;;;;;;;;5353351;26;20377;-88
2024/04/19 04:53:05;;;;;;;6.00;5.40;;;;;;;;;;5352217;26;20266;-88
2024/04/19 04:55:31;;;;;;;6.23;5.70;;;;;;;;;;5377525;26;20320;-88
2024/04/19 04:57:59;;;;;;;6.27;5.73;;;;;;;;;;5314923;26;20337;-89
2024/04/19 05:00:28;;;;;;;5.97;5.47;;;;;;;;;;5351718;26;20289;-85
2024/04/19 05:03:00;;;;;;;6.20;5.70;;;;;;;;;;5351193;26;20272;-87
2024/04/19 05:05:25;;;;;;;6.87;6.17;;;;;;;;;;5325558;26;20254;-87
2024/04/19 05:07:51;;;;;;;7.33;6.67;;;;;;;;;;5324434;26;20258;-86
2024/04/19 05:10:19;;;;;;;7.17;6.60;;;;;;;;;;5354313;26;20490;-86
2024/04/19 05:12:48;;;;;;;7.40;6.80;;;;;;;;;;5340136;26;20267;-87
2024/04/19 05:15:14;;;;;;;7.33;6.77;;;;;;;;;;5326108;26;20363;-86
2024/04/19 05:17:39;;;;;;;8.03;7.33;;;;;;;;;;5352554;26;20289;-86
2024/04/19 05:20:06;;;;;;;7.97;7.37;;;;;;;;;;5333520;26;20249;-88
2024/04/19 05:22:35;;;;;;;7.53;6.93;;;;;;;;;;5356854;26;20257;-87
2024/04/19 05:25:07;;;;;;;7.70;7.10;;;;;;;;;;5356782;26;20262;-87
2024/04/19 05:27:34;;;;;;;7.57;6.90;;;;;;;;;;5322983;26;20272;-88
2024/04/19 05:30:02;;;;;;;8.00;7.33;;;;;;;;;;5324887;26;20254;-86
2024/04/19 05:32:28;;;;;;;9.17;8.37;;;;;;;;;;5354588;26;20258;-87
2024/04/19 05:34:56;;;;;;;10.20;9.30;;;;;;;;;;5326665;26;20300;-89
2024/04/19 05:37:21;;;;;;;9.83;8.93;;;;;;;;;;5353116;26;20242;-86
2024/04/19 05:39:52;;;;;;;10.77;9.87;;;;;;;;;;5374116;26;20390;-87
2024/04/19 05:42:20;;;;;;;10.87;9.97;;;;;;;;;;5326559;26;20284;-86
2024/04/19 05:44:45;;;;;;;11.43;10.53;;;;;;;;;;5348290;26;20296;-86
2024/04/19 05:47:12;;;;;;;11.67;10.73;;;;;;;;;;5323005;26;20266;-86
2024/04/19 05:49:38;;;;;;;11.87;10.93;;;;;;;;;;5297163;26;20288;-87
2024/04/19 05:52:03;;;;;;;12.67;11.57;;;;;;;;;;5355153;26;20801;-87
2024/04/19 05:54:29;;;;;;;12.97;11.90;;;;;;;;;;5330148;26;20258;-86
2024/04/19 05:56:55;;;;;;;13.57;12.47;;;;;;;;;;5351220;26;20293;-87
2024/04/19 05:59:23;;;;;;;14.50;13.20;;;;;;;;;;5317427;26;20262;-87
2024/04/19 06:01:51;;;;;;;14.53;13.13;;;;;;;;;;5322741;26;20271;-87
2024/04/19 06:04:33;;;;;;;15.00;13.70;;;;;;;;;;5334710;26;20296;-86
2024/04/19 06:07:02;;;;;;;15.13;13.83;;;;;;;;;;5329043;26;20257;-85
2024/04/19 06:09:33;;;;;;;14.73;13.43;;;;;;;;;;5343878;26;20263;-86
2024/04/19 06:12:04;;;;;;;14.60;13.30;;;;;;;;;;5320967;26;20444;-85
2024/04/19 06:14:32;;;;;;;14.70;13.37;;;;;;;;;;5316218;26;20258;-86
2024/04/19 06:16:58;;;;;;;14.60;13.27;;;;;;;;;;5350757;26;20293;-85
2024/04/19 06:19:26;;;;;;;16.80;15.30;;;;;;;;;;5320980;26;20700;-86
2024/04/19 06:21:52;;;;;;;15.50;14.20;;;;;;;;;;5312319;26;20265;-86
2024/04/19 06:24:20;;;;;;;15.87;14.57;;;;;;;;;;5335608;26;20307;-83
2024/04/19 06:26:49;;;;;;;15.27;13.87;;;;;;;;;;5352177;26;20289;-85
2024/04/19 06:29:17;;;;;;;15.73;14.40;;;;;;;;;;5327551;26;20253;-85
2024/04/19 06:31:44;;;;;;;16.20;14.80;;;;;;;;;;5356124;26;20254;-85
2024/04/19 06:34:09;;;;;;;15.90;14.40;;;;;;;;;;5384169;26;20280;-88
2024/04/19 06:36:40;;;;;;;16.93;15.43;;;;;;;;;;5356209;26;20258;-84
2024/04/19 06:39:22;;;;;;;15.93;14.50;;;;;;;;;;5321090;26;20348;-86
2024/04/19 06:41:47;;;;;;;14.80;13.30;;;;;;;;;;5327037;26;20266;-83
2024/04/19 06:44:29;;;;;;;14.87;13.50;;;;;;;;;;5394985;26;20262;-84
2024/04/19 06:47:02;;;;;;;14.30;13.07;;;;;;;;;;5392300;26;20301;-84
2024/04/19 06:49:27;;;;;;;14.10;12.90;;;;;;;;;;5359061;26;20249;-87
2024/04/19 06:51:53;;;;;;;13.17;12.07;;;;;;;;;;5325059;26;20923;-86
2024/04/19 06:54:18;;;;;;;13.87;12.57;;;;;;;;;;5356161;26;20258;-87
2024/04/19 06:56:47;;;;;;;14.17;12.87;;;;;;;;;;5314098;26;20652;-85
2024/04/19 06:59:12;;;;;;;13.90;12.77;;;;;;;;;;5308842;26;20337;-86
2024/04/19 07:01:40;;;;;;;13.73;12.53;;;;;;;;;;5352440;26;20306;-86
2024/04/19 07:04:08;;;;;;;12.70;11.60;;;;;;;;;;5330268;26;20262;-85
2024/04/19 07:06:34;;;;;;;13.03;11.93;;;;;;;;;;5300843;26;20345;-86
2024/04/19 07:08:59;;;;;;;13.10;12.00;;;;;;;;;;5326266;26;20286;-85
2024/04/19 07:11:25;;;;;;;13.57;12.47;;;;;;;;;;5347369;26;20687;-86
2024/04/19 07:13:51;;;;;;;12.27;11.17;;;;;;;;;;5353914;26;20262;-87
2024/04/19 07:16:17;;;;;;;13.23;12.03;;;;;;;;;;5409131;26;20269;-87
2024/04/19 07:18:51;;;;;;;12.40;11.40;;;;;;;;;;5354924;26;20250;-85
2024/04/19 07:21:19;;;;;;;12.60;11.40;;;;;;;;;;5355838;26;20284;-88
2024/04/19 07:23:45;;;;;;;14.07;12.87;;;;;;;;;;5338234;26;20245;-88
2024/04/19 07:26:12;;;;;;;12.67;11.67;;;;;;;;;;5349186;26;20266;-85
2024/04/19 07:28:38;;;;;;;14.47;13.27;;;;;;;;;;5376146;26;20276;-85
2024/04/19 07:31:04;;;;;;;13.93;12.73;;;;;;;;;;5345885;26;20261;-87
2024/04/19 07:33:32;;;;;;;13.53;12.30;;;;;;;;;;5340411;26;20300;-88
2024/04/19 07:35:59;;;;;;;14.37;12.97;;;;;;;;;;5349367;26;20496;-87
2024/04/19 07:38:25;;;;;;;12.47;11.37;;;;;;;;;;5323286;26;20288;-85
2024/04/19 07:40:52;;;;;;;13.27;12.10;;;;;;;;;;5295393;26;20265;-87
2024/04/19 07:43:20;;;;;;;15.87;14.33;;;;;;;;;;5323069;26;20265;-86
2024/04/19 07:45:46;;;;;;;22.17;19.93;;;;;;;;;;5349347;26;20302;-87
2024/04/19 07:48:11;;;;;;;23.43;20.93;;;;;;;;;;5375265;26;20258;-86
2024/04/19 07:50:37;;;;;;;14.17;12.77;;;;;;;;;;5379498;26;20261;-87
2024/04/19 07:53:05;;;;;;;12.67;11.63;;;;;;;;;;5354237;26;20288;-88
2024/04/19 07:55:31;;;;;;;12.67;11.57;;;;;;;;;;5326177;26;20309;-88
2024/04/19 07:57:57;;;;;;;11.37;10.37;;;;;;;;;;5322238;26;20360;-86
2024/04/19 08:00:24;;;;;;;12.63;11.50;;;;;;;;;;5376939;26;22311;-86
2024/04/19 08:02:49;;;;;;;12.27;11.10;;;;;;;;;;5322430;26;20249;-87
2024/04/19 08:05:17;;;;;;;10.93;9.93;;;;;;;;;;5344673;26;20261;-87
2024/04/19 08:07:42;;;;;;;11.40;10.50;;;;;;;;;;5317019;26;20276;-86
2024/04/19 08:10:08;;;;;;;11.13;10.03;;;;;;;;;;5321859;26;20262;-88
2024/04/19 08:12:39;;;;;;;10.93;9.93;;;;;;;;;;5295522;26;20284;-86
2024/04/19 08:15:05;;;;;;;10.80;9.70;;;;;;;;;;5369295;26;20276;-86
2024/04/19 08:17:31;;;;;;;13.83;11.37;;;;;;;;;;5349747;26;20254;-87
2024/04/19 08:19:57;;;;;;;10.53;9.60;;;;;;;;;;5325266;26;20254;-86
2024/04/19 08:22:22;;;;;;;10.27;9.17;;;;;;;;;;5353997;26;20258;-86
2024/04/19 08:24:48;;;;;;;9.60;8.63;;;;;;;;;;5353419;26;20288;-86
2024/04/19 08:27:13;;;;;;;8.93;8.10;;;;;;;;;;5326280;26;20257;-87
2024/04/19 08:29:41;;;;;;;8.73;7.93;;;;;;;;;;5344012;26;20250;-87
2024/04/19 08:32:09;;;;;;;9.13;7.93;;;;;;;;;;5378674;26;20253;-86
2024/04/19 08:34:35;;;;;;;7.67;6.97;;;;;;;;;;5352423;26;20290;-86
2024/04/19 08:37:03;;;;;;;7.90;7.30;;;;;;;;;;5382445;26;20293;-87
2024/04/19 08:39:31;;;;;;;7.87;7.17;;;;;;;;;;5299199;26;20258;-80
2024/04/19 08:42:02;;;;;;;7.37;6.70;;;;;;;;;;5383270;26;20344;-79
2024/04/19 08:44:30;;;;;;;7.73;7.03;;;;;;;;;;5346642;26;20290;-79
2024/04/19 08:46:55;;;;;;;7.33;6.63;;;;;;;;;;5373378;26;20265;-80
2024/04/19 08:49:21;;;;;;;7.87;6.80;;;;;;;;;;5343060;26;20262;-78
2024/04/19 08:51:47;;;;;;;7.87;6.67;;;;;;;;;;5319292;26;20754;-79
2024/04/19 08:54:12;;;;;;;7.00;6.40;;;;;;;;;;5319890;26;20269;-80
2024/04/19 08:56:38;;;;;;;7.50;6.10;;;;;;;;;;5347127;26;20300;-80
2024/04/19 08:59:03;;;;;;;7.17;5.60;;;;;;;;;;5317519;26;20633;-79
2024/04/19 09:01:29;;;;;;;5.90;5.30;;;;;;;;;;5346033;26;20250;-79
2024/04/19 09:03:54;;;;;;;5.80;5.30;;;;;;;;;;5404473;26;20250;-79
2024/04/19 09:06:20;;;;;;;6.47;5.33;;;;;;;;;;5374872;26;20300;-79
2024/04/19 09:08:45;;;;;;;6.90;6.20;;;;;;;;;;5341402;26;20254;-79
2024/04/19 09:11:15;;;;;;;7.17;6.00;;;;;;;;;;5316230;26;20253;-79
2024/04/19 09:13:42;;;;;;;8.00;6.37;;;;;;;;;;5320597;26;20326;-80
2024/04/19 09:16:08;;;;;;;7.10;6.40;;;;;;;;;;5405409;26;20375;-80
2024/04/19 09:18:34;;;;;;;8.77;5.93;;;;;;;;;;5346757;26;20263;-79
2024/04/19 09:21:02;;;;;;;7.60;5.30;;;;;;;;;;5344496;26;20331;-80
2024/04/19 09:23:30;;;;;;;6.83;5.00;;;;;;;;;;5315437;26;20770;-80
2024/04/19 09:25:56;;;;;;;5.30;3.90;;;;;;;;;;5375579;26;20388;-80
2024/04/19 09:28:22;;;;;;;3.93;2.90;;;;;;;;;;5349917;26;20257;-80
2024/04/19 09:30:53;;;;;;;6.67;3.13;;;;;;;;;;5319079;26;20254;-82
2024/04/19 09:33:20;;;;;;;5.27;2.83;;;;;;;;;;5318135;26;20262;-79
2024/04/19 09:35:48;;;;;;;4.27;2.60;;;;;;;;;;5358696;26;20352;-80
2024/04/19 09:38:17;;;;;;;6.97;2.40;;;;;;;;;;5319224;26;20304;-80
2024/04/19 09:40:44;;;;;;;3.87;1.90;;;;;;;;;;5322476;26;20280;-79
2024/04/19 09:43:10;;;;;;;4.77;1.80;;;;;;;;;;5321130;26;20293;-80
2024/04/19 09:45:47;;;;;;;5.60;2.07;;;;;;;;;;5345971;26;20599;-80
2024/04/19 09:48:16;;;;;;;5.20;1.90;;;;;;;;;;5376225;26;20305;-79
2024/04/19 09:50:49;;;;;;;6.07;2.10;;;;;;;;;;5378620;26;20288;-80
2024/04/19 09:53:16;;;;;;;4.00;1.87;;;;;;;;;;5345625;26;20306;-79
2024/04/19 09:55:53;;;;;;;5.43;1.70;;;;;;;;;;5374830;26;20254;-80
2024/04/19 09:58:19;;;;;;;5.40;1.40;;;;;;;;;;5354523;26;20289;-78
2024/04/19 10:00:45;;;;;;;5.10;1.60;;;;;;;;;;5342171;26;20257;-80
2024/04/19 10:03:13;;;;;;;4.67;1.60;;;;;;;;;;5286609;26;20288;-79
2024/04/19 10:05:39;;;;;;;3.33;1.30;;;;;;;;;;5340126;26;20254;-78
2024/04/19 10:08:04;;;;;;;4.40;1.47;;;;;;;;;;5335995;26;20329;-80
2024/04/19 10:10:30;;;;;;;2.77;1.37;;;;;;;;;;5347763;26;20272;-80
2024/04/19 10:12:57;;;;;;;6.83;1.80;;;;;;;;;;5374259;26;20398;-81
2024/04/19 10:15:23;;;;;;;5.00;1.40;;;;;;;;;;5402537;26;20275;-81
2024/04/19 10:17:48;;;;;;;5.10;1.50;;;;;;;;;;5375322;26;20270;-81
2024/04/19 10:20:14;;;;;;;4.90;1.43;;;;;;;;;;5344032;26;20313;-78
2024/04/19 10:22:42;;;;;;;3.67;1.40;;;;;;;;;;5370035;26;20365;-78
2024/04/19 10:25:07;;;;;;;2.87;1.00;;;;;;;;;;5371320;26;20270;-79
2024/04/19 10:27:33;;;;;;;3.47;0.93;;;;;;;;;;5342928;26;20339;-78
2024/04/19 10:29:59;;;;;;;3.47;1.07;;;;;;;;;;5349088;26;20254;-80
2024/04/19 10:32:24;;;;;;;3.77;1.20;;;;;;;;;;5376666;26;20254;-79
2024/04/19 10:34:53;;;;;;;2.43;1.23;;;;;;;;;;5346585;26;21043;-79
2024/04/19 10:37:19;;;;;;;3.37;1.30;;;;;;;;;;5317296;26;20653;-79
2024/04/19 10:39:46;;;;;;;6.23;1.37;;;;;;;;;;5347713;26;20566;-79
2024/04/19 10:42:11;;;;;;;4.40;1.33;;;;;;;;;;5317925;26;20289;-80
2024/04/19 10:44:40;;;;;;;4.23;1.23;;;;;;;;;;5375821;26;20258;-80
2024/04/19 10:47:06;;;;;;;3.87;1.60;;;;;;;;;;5342580;26;20299;-79
2024/04/19 10:49:32;;;;;;;5.67;1.60;;;;;;;;;;5321622;26;20669;-80
2024/04/19 10:52:00;;;;;;;4.80;1.97;;;;;;;;;;5356795;26;20246;-81
2024/04/19 10:54:26;;;;;;;5.93;1.90;;;;;;;;;;5357602;26;20249;-78
2024/04/19 10:56:56;;;;;;;6.47;2.10;;;;;;;;;;5353088;26;20262;-80
2024/04/19 10:59:25;;;;;;;4.87;2.00;;;;;;;;;;5351827;26;20257;-80
2024/04/19 11:01:57;;;;;;;4.63;1.90;;;;;;;;;;5374668;26;20258;-79
2024/04/19 11:04:25;;;;;;;7.43;2.03;;;;;;;;;;5351500;26;20292;-79
2024/04/19 11:06:53;;;;;;;4.83;2.07;;;;;;;;;;5374339;26;20702;-80
2024/04/19 11:09:21;;;;;;;6.87;2.10;;;;;;;;;;5343103;26;20361;-78
2024/04/19 11:11:46;;;;;;;5.63;2.27;;;;;;;;;;5311678;26;20247;-79
2024/04/19 11:14:12;;;;;;;4.10;1.80;;;;;;;;;;5345520;26;20263;-80
2024/04/19 11:16:37;;;;;;;6.37;2.30;;;;;;;;;;5377342;26;20730;-78
2024/04/19 11:19:04;;;;;;;6.90;2.10;;;;;;;;;;5380216;26;20717;-78
2024/04/19 11:21:29;;;;;;;4.67;2.47;;;;;;;;;;5346825;26;20259;-78
2024/04/19 11:23:55;;;;;;;6.77;2.10;;;;;;;;;;5345606;26;20358;-79
2024/04/19 11:26:21;;;;;;;5.83;2.07;;;;;;;;;;5304657;26;20365;-78
2024/04/19 11:28:50;;;;;;;4.23;1.93;;;;;;;;;;5364545;26;20314;-79
2024/04/19 11:31:16;;;;;;;4.87;2.10;;;;;;;;;;5289639;26;20345;-80
2024/04/19 11:33:44;;;;;;;5.70;2.07;;;;;;;;;;5347103;26;20828;-78
2024/04/19 11:36:13;;;;;;;7.13;2.27;;;;;;;;;;5318765;26;20272;-79
2024/04/19 11:38:40;;;;;;;4.10;1.80;;;;;;;;;;5371233;26;20293;-79
2024/04/19 11:41:07;;;;;;;7.17;2.10;;;;;;;;;;5348368;26;20292;-77
2024/04/19 11:43:33;;;;;;;5.70;2.07;;;;;;;;;;5344454;26;20384;-79
2024/04/19 11:45:59;;;;;;;5.87;2.23;;;;;;;;;;5404609;26;20258;-81
2024/04/19 11:48:28;;;;;;;8.13;2.37;;;;;;;;;;5350978;26;20627;-79
2024/04/19 11:50:54;;;;;;;5.47;1.70;;;;;;;;;;5348755;26;20486;-77
2024/04/19 11:53:22;;;;;;;4.33;1.60;;;;;;;;;;5343685;26;20255;-80
2024/04/19 11:55:50;;;;;;;5.75;1.70;;;;;;;;;;5379212;26;20375;-79
2024/04/19 11:58:16;;;;;;;3.97;1.87;;;;;;;;;;5335224;26;20317;-79
2024/04/19 12:00:44;;;;;;;3.67;1.63;;;;;;;;;;5323176;26;20747;-79
2024/04/19 12:03:10;;;;;;;4.77;1.90;;;;;;;;;;5322788;26;20339;-79
2024/04/19 12:05:39;;;;;;;4.50;1.57;;;;;;;;;;5403512;26;20295;-80
2024/04/19 12:08:05;;;;;;;4.50;1.70;;;;;;;;;;5339763;26;20267;-79
2024/04/19 12:10:30;;;;;;;7.53;2.00;;;;;;;;;;5376562;26;20285;-79
2024/04/19 12:12:56;;;;;;;4.13;2.10;;;;;;;;;;5365997;26;20311;-79
2024/04/19 12:15:22;;;;;;;5.87;1.67;;;;;;;;;;5380720;26;20262;-79
2024/04/19 12:17:47;;;;;;;5.57;1.63;;;;;;;;;;5380254;26;20288;-79
2024/04/19 12:20:13;;;;;;;5.87;1.87;;;;;;;;;;5376094;26;20813;-80
2024/04/19 12:22:38;;;;;;;5.17;1.57;;;;;;;;;;5377384;26;20266;-79
2024/04/19 12:25:04;;;;;;;5.17;1.63;;;;;;;;;;5373285;26;20258;-79
2024/04/19 12:27:32;;;;;;;28.67;21.63;;;;;;;;;;5367762;26;20269;-79
2024/04/19 12:29:57;;;;;;;5.23;1.83;;;;;;;;;;5347079;26;20330;-78
2024/04/19 12:32:23;;;;;;;6.23;2.00;;;;;;;;;;5374608;26;20258;-80
2024/04/19 12:34:51;;;;;;;2.93;1.63;;;;;;;;;;5321201;26;20670;-79
2024/04/19 12:37:16;;;;;;;4.07;1.70;;;;;;;;;;5322720;26;20284;-80
2024/04/19 12:39:42;;;;;;;6.83;1.93;;;;;;;;;;5378307;26;20286;-79
2024/04/19 12:42:09;;;;;;;6.97;1.97;;;;;;;;;;5378994;26;21076;-78
2024/04/19 12:44:35;;;;;;;4.97;1.73;;;;;;;;;;5324992;26;20304;-78
2024/04/19 12:47:01;;;;;;;4.77;1.50;;;;;;;;;;5348011;26;20494;-79
2024/04/19 12:49:26;;;;;;;4.17;1.40;;;;;;;;;;5349309;26;20296;-79
2024/04/19 12:51:54;;;;;;;4.00;1.73;;;;;;;;;;5380900;26;20262;-77
2024/04/19 12:54:20;;;;;;;5.90;1.80;;;;;;;;;;5402346;26;20254;-77
2024/04/19 12:56:48;;;;;;;5.17;1.50;;;;;;;;;;5320814;26;20296;-78
2024/04/19 12:59:14;;;;;;;4.07;1.63;;;;;;;;;;5319668;26;20257;-78
2024/04/19 13:01:40;;;;;;;5.23;1.97;;;;;;;;;;5319811;26;20270;-80
2024/04/19 13:04:05;;;;;;;4.93;1.47;;;;;;;;;;5336338;26;20259;-79
2024/04/19 13:06:33;;;;;;;3.33;1.57;;;;;;;;;;5348463;26;20267;-79
2024/04/19 13:08:59;;;;;;;4.60;1.23;;;;;;;;;;5370680;26;20767;-79
2024/04/19 13:11:25;;;;;;;3.67;1.20;;;;;;;;;;5342355;26;20612;-78
2024/04/19 13:13:56;;;;;;;3.53;1.43;;;;;;;;;;5372488;26;20322;-79
2024/04/19 13:16:25;;;;;;;4.07;1.23;;;;;;;;;;5349450;26;20282;-79
2024/04/19 13:18:50;;;;;;;2.63;1.40;;;;;;;;;;5322284;26;20258;-79
2024/04/19 13:21:16;;;;;;;3.93;1.37;;;;;;;;;;5347972;26;20270;-79
2024/04/19 13:23:42;;;;;;;4.13;1.50;;;;;;;;;;5349918;26;20262;-81
2024/04/19 13:26:10;;;;;;;4.50;1.63;;;;;;;;;;5348513;26;20258;-79
2024/04/19 13:28:38;;;;;;;4.40;1.33;;;;;;;;;;5411467;26;20258;-78
2024/04/19 13:31:04;;;;;;;7.37;1.87;;;;;;;;;;5350115;26;20255;-77
2024/04/19 13:33:30;;;;;;;7.70;1.50;;;;;;;;;;5353390;26;20410;-78
2024/04/19 13:35:55;;;;;;;5.87;1.93;;;;;;;;;;5365848;26;20760;-79
2024/04/19 13:38:21;;;;;;;5.77;2.00;;;;;;;;;;5351214;26;20291;-80
2024/04/19 13:40:47;;;;;;;4.33;1.80;;;;;;;;;;5349031;26;20254;-78
2024/04/19 13:43:15;;;;;;;4.70;1.50;;;;;;;;;;5373424;26;21099;-80
2024/04/19 13:45:45;;;;;;;4.43;1.50;;;;;;;;;;5350005;26;20276;-79
2024/04/19 13:48:13;;;;;;;5.03;1.77;;;;;;;;;;5347836;26;20689;-80
2024/04/19 13:50:39;;;;;;;6.87;1.43;;;;;;;;;;5350214;26;20306;-79
2024/04/19 13:53:07;;;;;;;4.37;1.60;;;;;;;;;;5378818;26;20273;-79
2024/04/19 13:55:33;;;;;;;6.03;1.60;;;;;;;;;;5373945;26;20282;-79
2024/04/19 13:58:01;;;;;;;5.93;1.80;;;;;;;;;;5351069;26;20365;-80
2024/04/19 14:00:27;;;;;;;5.43;2.13;;;;;;;;;;5324562;26;20258;-80
2024/04/19 14:02:52;;;;;;;5.20;2.30;;;;;;;;;;5379609;26;20317;-81
2024/04/19 14:05:18;;;;;;;9.23;2.50;;;;;;;;;;5372674;26;20739;-78
2024/04/19 14:07:45;;;;;;;9.60;2.60;;;;;;;;;;5405539;26;20257;-79
2024/04/19 14:10:10;;;;;;;8.33;3.10;;;;;;;;;;5347822;26;20262;-77
2024/04/19 14:12:38;;;;;;;15.23;3.20;;;;;;;;;;5341556;26;20263;-79
2024/04/19 14:15:04;;;;;;;8.23;3.17;;;;;;;;;;5341234;26;20288;-78
2024/04/19 14:17:29;;;;;;;10.00;3.27;;;;;;;;;;5378207;26;20257;-79
2024/04/19 14:19:59;;;;;;;11.47;3.67;;;;;;;;;;5374158;26;20336;-79
2024/04/19 14:22:29;;;;;;;9.87;3.53;;;;;;;;;;5375611;26;20250;-78
2024/04/19 14:24:55;;;;;;;9.57;3.40;;;;;;;;;;5380316;26;20254;-81
2024/04/19 14:27:20;;;;;;;11.13;3.77;;;;;;;;;;5317188;26;20263;-80
2024/04/19 14:29:47;;;;;;;10.87;3.50;;;;;;;;;;5324242;26;20350;-80
2024/04/19 14:32:13;;;;;;;10.20;3.23;;;;;;;;;;5319773;26;20258;-79
2024/04/19 14:34:39;;;;;;;9.63;3.40;;;;;;;;;;5353240;26;20305;-80
2024/04/19 14:37:06;;;;;;;7.37;3.03;;;;;;;;;;5352179;26;21008;-80
2024/04/19 14:39:34;;;;;;;8.53;2.40;;;;;;;;;;5349379;26;20296;-80
2024/04/19 14:42:00;;;;;;;9.63;2.73;;;;;;;;;;5347401;26;20265;-80
2024/04/19 14:44:25;;;;;;;6.77;2.60;;;;;;;;;;5350313;26;20257;-80